sensor_id;sensor_type;location;lat;lon;timestamp;P1;durP1;ratioP1;P2;durP2;ratioP2
20417;SDS011;10368;51.436;6.774;2022-09-28T00:03:33;4.57;;;3.43;;
20417;SDS011;10368;51.436;6.774;2022-09-28T00:06:01;4.30;;;3.23;;
20417;SDS011;10368;51.436;6.774;2022-09-28T00:08:29;4.00;;;3.47;;
20417;SDS011;10368;51.436;6.774;2022-09-28T00:10:56;4.07;;;3.20;;
20417;SDS011;10368;51.436;6.774;2022-09-28T00:13:23;4.67;;;3.97;;
20417;SDS011;10368;51.436;6.774;2022-09-28T00:18:27;5.23;;;3.70;;
20417;SDS011;10368;51.436;6.774;2022-09-28T00:23:40;5.37;;;4.30;;
20417;SDS011;10368;51.436;6.774;2022-09-28T00:26:27;6.97;;;4.80;;
20417;SDS011;10368;51.436;6.774;2022-09-28T00:28:55;6.23;;;4.80;;
20417;SDS011;10368;51.436;6.774;2022-09-28T00:31:27;4.90;;;4.40;;
20417;SDS011;10368;51.436;6.774;2022-09-28T00:33:57;6.57;;;4.40;;
20417;SDS011;10368;51.436;6.774;2022-09-28T00:36:29;6.50;;;5.17;;
20417;SDS011;10368;51.436;6.774;2022-09-28T00:38:57;6.53;;;4.93;;
20417;SDS011;10368;51.436;6.774;2022-09-28T00:41:25;7.07;;;5.70;;
20417;SDS011;10368;51.436;6.774;2022-09-28T00:43:53;5.83;;;5.23;;
20417;SDS011;10368;51.436;6.774;2022-09-28T00:46:26;6.00;;;5.40;;
20417;SDS011;10368;51.436;6.774;2022-09-28T00:48:57;9.73;;;6.07;;
20417;SDS011;10368;51.436;6.774;2022-09-28T00:51:28;7.47;;;5.83;;
20417;SDS011;10368;51.436;6.774;2022-09-28T00:53:56;7.13;;;5.70;;
20417;SDS011;10368;51.436;6.774;2022-09-28T00:56:25;6.07;;;5.23;;
20417;SDS011;10368;51.436;6.774;2022-09-28T00:58:54;7.73;;;6.50;;
20417;SDS011;10368;51.436;6.774;2022-09-28T01:01:23;6.17;;;5.57;;
20417;SDS011;10368;51.436;6.774;2022-09-28T01:03:50;8.00;;;5.80;;
20417;SDS011;10368;51.436;6.774;2022-09-28T01:06:18;6.60;;;5.90;;
20417;SDS011;10368;51.436;6.774;2022-09-28T01:08:46;7.97;;;5.60;;
20417;SDS011;10368;51.436;6.774;2022-09-28T01:11:16;6.70;;;5.63;;
20417;SDS011;10368;51.436;6.774;2022-09-28T01:13:43;6.70;;;5.93;;
20417;SDS011;10368;51.436;6.774;2022-09-28T01:21:17;7.20;;;6.50;;
20417;SDS011;10368;51.436;6.774;2022-09-28T01:23:54;7.47;;;6.43;;
20417;SDS011;10368;51.436;6.774;2022-09-28T01:29:16;9.60;;;6.87;;
20417;SDS011;10368;51.436;6.774;2022-09-28T01:31:45;8.87;;;7.37;;
20417;SDS011;10368;51.436;6.774;2022-09-28T01:34:20;8.10;;;7.30;;
20417;SDS011;10368;51.436;6.774;2022-09-28T01:36:52;8.00;;;7.20;;
20417;SDS011;10368;51.436;6.774;2022-09-28T01:39:22;9.67;;;7.40;;
20417;SDS011;10368;51.436;6.774;2022-09-28T01:41:50;9.93;;;7.67;;
20417;SDS011;10368;51.436;6.774;2022-09-28T01:44:18;18.23;;;8.00;;
20417;SDS011;10368;51.436;6.774;2022-09-28T01:46:47;11.77;;;7.50;;
20417;SDS011;10368;51.436;6.774;2022-09-28T01:51:56;13.30;;;7.67;;
20417;SDS011;10368;51.436;6.774;2022-09-28T01:54:28;9.60;;;8.00;;
20417;SDS011;10368;51.436;6.774;2022-09-28T01:56:59;15.37;;;9.57;;
20417;SDS011;10368;51.436;6.774;2022-09-28T01:59:28;10.73;;;8.70;;
20417;SDS011;10368;51.436;6.774;2022-09-28T02:02:08;10.80;;;9.30;;
20417;SDS011;10368;51.436;6.774;2022-09-28T02:04:41;15.73;;;11.00;;
20417;SDS011;10368;51.436;6.774;2022-09-28T02:07:21;25.77;;;13.57;;
20417;SDS011;10368;51.436;6.774;2022-09-28T02:09:53;27.20;;;14.97;;
20417;SDS011;10368;51.436;6.774;2022-09-28T02:12:43;24.87;;;13.73;;
20417;SDS011;10368;51.436;6.774;2022-09-28T02:17:43;27.17;;;16.77;;
20417;SDS011;10368;51.436;6.774;2022-09-28T02:20:11;22.77;;;13.50;;
20417;SDS011;10368;51.436;6.774;2022-09-28T02:22:40;23.93;;;14.07;;
20417;SDS011;10368;51.436;6.774;2022-09-28T02:25:23;20.17;;;12.03;;
20417;SDS011;10368;51.436;6.774;2022-09-28T02:27:59;16.37;;;11.40;;
20417;SDS011;10368;51.436;6.774;2022-09-28T02:30:30;15.90;;;11.13;;
20417;SDS011;10368;51.436;6.774;2022-09-28T02:33:00;12.57;;;11.27;;
20417;SDS011;10368;51.436;6.774;2022-09-28T02:35:28;15.43;;;12.30;;
20417;SDS011;10368;51.436;6.774;2022-09-28T02:37:55;15.50;;;12.70;;
20417;SDS011;10368;51.436;6.774;2022-09-28T02:40:24;14.10;;;12.20;;
20417;SDS011;10368;51.436;6.774;2022-09-28T02:45:37;14.40;;;11.80;;
20417;SDS011;10368;51.436;6.774;2022-09-28T02:54:04;16.30;;;12.77;;
20417;SDS011;10368;51.436;6.774;2022-09-28T02:56:37;14.07;;;12.60;;
20417;SDS011;10368;51.436;6.774;2022-09-28T03:02:00;14.40;;;12.70;;
20417;SDS011;10368;51.436;6.774;2022-09-28T03:07:20;22.73;;;14.33;;
20417;SDS011;10368;51.436;6.774;2022-09-28T03:10:04;15.17;;;13.57;;
20417;SDS011;10368;51.436;6.774;2022-09-28T03:12:35;18.40;;;14.40;;
20417;SDS011;10368;51.436;6.774;2022-09-28T03:17:48;15.13;;;13.37;;
20417;SDS011;10368;51.436;6.774;2022-09-28T03:20:15;13.20;;;11.80;;
20417;SDS011;10368;51.436;6.774;2022-09-28T03:22:43;15.83;;;13.47;;
20417;SDS011;10368;51.436;6.774;2022-09-28T03:25:30;17.57;;;13.70;;
20417;SDS011;10368;51.436;6.774;2022-09-28T03:27:57;15.40;;;13.30;;
20417;SDS011;10368;51.436;6.774;2022-09-28T03:30:25;15.23;;;13.13;;
20417;SDS011;10368;51.436;6.774;2022-09-28T03:32:55;15.43;;;13.30;;
20417;SDS011;10368;51.436;6.774;2022-09-28T03:35:23;18.40;;;13.70;;
20417;SDS011;10368;51.436;6.774;2022-09-28T03:37:54;16.30;;;12.60;;
20417;SDS011;10368;51.436;6.774;2022-09-28T03:40:21;16.30;;;12.57;;
20417;SDS011;10368;51.436;6.774;2022-09-28T03:42:49;15.60;;;13.60;;
20417;SDS011;10368;51.436;6.774;2022-09-28T03:45:16;12.17;;;10.97;;
20417;SDS011;10368;51.436;6.774;2022-09-28T03:47:47;14.90;;;13.33;;
20417;SDS011;10368;51.436;6.774;2022-09-28T03:50:17;19.17;;;13.30;;
20417;SDS011;10368;51.436;6.774;2022-09-28T03:52:45;15.70;;;13.50;;
20417;SDS011;10368;51.436;6.774;2022-09-28T03:55:13;16.73;;;13.13;;
20417;SDS011;10368;51.436;6.774;2022-09-28T03:57:40;19.50;;;14.60;;
20417;SDS011;10368;51.436;6.774;2022-09-28T04:00:07;14.47;;;12.97;;
20417;SDS011;10368;51.436;6.774;2022-09-28T04:02:35;17.43;;;14.10;;
20417;SDS011;10368;51.436;6.774;2022-09-28T04:05:02;16.47;;;13.47;;
20417;SDS011;10368;51.436;6.774;2022-09-28T04:07:29;17.20;;;13.73;;
20417;SDS011;10368;51.436;6.774;2022-09-28T04:09:57;16.83;;;14.20;;
20417;SDS011;10368;51.436;6.774;2022-09-28T04:12:24;21.40;;;16.63;;
20417;SDS011;10368;51.436;6.774;2022-09-28T04:14:51;16.77;;;14.97;;
20417;SDS011;10368;51.436;6.774;2022-09-28T04:17:19;17.73;;;15.90;;
20417;SDS011;10368;51.436;6.774;2022-09-28T04:19:46;19.50;;;16.63;;
20417;SDS011;10368;51.436;6.774;2022-09-28T04:22:13;17.10;;;15.30;;
20417;SDS011;10368;51.436;6.774;2022-09-28T04:24:40;22.50;;;15.27;;
20417;SDS011;10368;51.436;6.774;2022-09-28T04:27:13;17.77;;;15.87;;
20417;SDS011;10368;51.436;6.774;2022-09-28T04:30:00;18.20;;;14.47;;
20417;SDS011;10368;51.436;6.774;2022-09-28T04:32:27;18.80;;;16.33;;
20417;SDS011;10368;51.436;6.774;2022-09-28T04:34:54;23.63;;;17.50;;
20417;SDS011;10368;51.436;6.774;2022-09-28T04:37:22;19.87;;;15.87;;
20417;SDS011;10368;51.436;6.774;2022-09-28T04:39:49;18.87;;;15.60;;
20417;SDS011;10368;51.436;6.774;2022-09-28T04:42:16;20.97;;;17.63;;
20417;SDS011;10368;51.436;6.774;2022-09-28T04:44:43;23.70;;;16.87;;
20417;SDS011;10368;51.436;6.774;2022-09-28T04:47:11;19.97;;;17.83;;
20417;SDS011;10368;51.436;6.774;2022-09-28T04:49:38;21.77;;;18.07;;
20417;SDS011;10368;51.436;6.774;2022-09-28T04:52:05;33.13;;;18.03;;
20417;SDS011;10368;51.436;6.774;2022-09-28T04:54:33;23.00;;;19.13;;
20417;SDS011;10368;51.436;6.774;2022-09-28T04:57:02;22.10;;;19.10;;
20417;SDS011;10368;51.436;6.774;2022-09-28T04:59:31;24.60;;;18.67;;
20417;SDS011;10368;51.436;6.774;2022-09-28T05:01:58;21.47;;;17.90;;
20417;SDS011;10368;51.436;6.774;2022-09-28T05:04:26;21.23;;;17.13;;
20417;SDS011;10368;51.436;6.774;2022-09-28T05:06:53;22.97;;;19.23;;
20417;SDS011;10368;51.436;6.774;2022-09-28T05:09:20;26.77;;;19.37;;
20417;SDS011;10368;51.436;6.774;2022-09-28T05:11:48;29.23;;;19.63;;
20417;SDS011;10368;51.436;6.774;2022-09-28T05:14:15;25.57;;;18.97;;
20417;SDS011;10368;51.436;6.774;2022-09-28T05:16:43;24.53;;;20.57;;
20417;SDS011;10368;51.436;6.774;2022-09-28T05:19:13;24.63;;;19.00;;
20417;SDS011;10368;51.436;6.774;2022-09-28T05:21:44;28.43;;;19.20;;
20417;SDS011;10368;51.436;6.774;2022-09-28T05:24:11;24.40;;;19.13;;
20417;SDS011;10368;51.436;6.774;2022-09-28T05:26:39;24.50;;;19.03;;
20417;SDS011;10368;51.436;6.774;2022-09-28T05:29:06;24.93;;;19.53;;
20417;SDS011;10368;51.436;6.774;2022-09-28T05:31:33;25.20;;;18.33;;
20417;SDS011;10368;51.436;6.774;2022-09-28T05:34:00;23.17;;;18.93;;
20417;SDS011;10368;51.436;6.774;2022-09-28T05:36:28;24.77;;;18.13;;
20417;SDS011;10368;51.436;6.774;2022-09-28T05:38:57;25.00;;;19.63;;
20417;SDS011;10368;51.436;6.774;2022-09-28T05:41:25;21.40;;;16.97;;
20417;SDS011;10368;51.436;6.774;2022-09-28T05:43:53;24.33;;;19.43;;
20417;SDS011;10368;51.436;6.774;2022-09-28T05:46:23;20.30;;;17.37;;
20417;SDS011;10368;51.436;6.774;2022-09-28T05:48:50;22.47;;;18.37;;
20417;SDS011;10368;51.436;6.774;2022-09-28T05:51:19;19.27;;;17.17;;
20417;SDS011;10368;51.436;6.774;2022-09-28T05:53:46;26.00;;;19.70;;
20417;SDS011;10368;51.436;6.774;2022-09-28T05:56:13;35.83;;;22.50;;
20417;SDS011;10368;51.436;6.774;2022-09-28T05:58:41;53.90;;;28.70;;
20417;SDS011;10368;51.436;6.774;2022-09-28T06:01:08;46.87;;;27.00;;
20417;SDS011;10368;51.436;6.774;2022-09-28T06:03:36;43.83;;;26.20;;
20417;SDS011;10368;51.436;6.774;2022-09-28T06:06:03;42.67;;;25.03;;
20417;SDS011;10368;51.436;6.774;2022-09-28T06:08:31;41.70;;;23.53;;
20417;SDS011;10368;51.436;6.774;2022-09-28T06:10:59;31.90;;;22.07;;
20417;SDS011;10368;51.436;6.774;2022-09-28T06:13:26;33.30;;;21.23;;
20417;SDS011;10368;51.436;6.774;2022-09-28T06:15:54;32.43;;;21.23;;
20417;SDS011;10368;51.436;6.774;2022-09-28T06:18:21;40.00;;;22.37;;
20417;SDS011;10368;51.436;6.774;2022-09-28T06:20:49;40.50;;;24.37;;
20417;SDS011;10368;51.436;6.774;2022-09-28T06:23:16;32.43;;;21.70;;
20417;SDS011;10368;51.436;6.774;2022-09-28T06:25:43;29.83;;;18.60;;
20417;SDS011;10368;51.436;6.774;2022-09-28T06:28:11;27.90;;;19.03;;
20417;SDS011;10368;51.436;6.774;2022-09-28T06:30:39;33.50;;;21.00;;
20417;SDS011;10368;51.436;6.774;2022-09-28T06:33:09;26.93;;;18.30;;
20417;SDS011;10368;51.436;6.774;2022-09-28T06:35:37;25.03;;;17.17;;
20417;SDS011;10368;51.436;6.774;2022-09-28T06:38:05;26.93;;;17.73;;
20417;SDS011;10368;51.436;6.774;2022-09-28T06:40:32;19.20;;;15.97;;
20417;SDS011;10368;51.436;6.774;2022-09-28T06:45:28;20.87;;;17.30;;
20417;SDS011;10368;51.436;6.774;2022-09-28T06:47:59;18.40;;;15.20;;
20417;SDS011;10368;51.436;6.774;2022-09-28T06:50:27;15.60;;;14.00;;
20417;SDS011;10368;51.436;6.774;2022-09-28T06:52:58;17.67;;;14.50;;
20417;SDS011;10368;51.436;6.774;2022-09-28T06:55:28;23.63;;;14.80;;
20417;SDS011;10368;51.436;6.774;2022-09-28T06:57:56;15.43;;;12.87;;
20417;SDS011;10368;51.436;6.774;2022-09-28T07:00:28;21.67;;;12.60;;
20417;SDS011;10368;51.436;6.774;2022-09-28T07:02:56;15.33;;;13.67;;
20417;SDS011;10368;51.436;6.774;2022-09-28T07:05:23;16.87;;;14.10;;
20417;SDS011;10368;51.436;6.774;2022-09-28T07:07:54;17.40;;;12.63;;
20417;SDS011;10368;51.436;6.774;2022-09-28T07:10:22;15.03;;;12.83;;
20417;SDS011;10368;51.436;6.774;2022-09-28T07:12:50;19.77;;;12.70;;
20417;SDS011;10368;51.436;6.774;2022-09-28T07:15:18;15.83;;;13.33;;
20417;SDS011;10368;51.436;6.774;2022-09-28T07:17:45;18.13;;;12.57;;
20417;SDS011;10368;51.436;6.774;2022-09-28T07:20:27;19.10;;;11.87;;
20417;SDS011;10368;51.436;6.774;2022-09-28T07:22:55;12.70;;;11.40;;
20417;SDS011;10368;51.436;6.774;2022-09-28T07:25:29;13.93;;;11.90;;
20417;SDS011;10368;51.436;6.774;2022-09-28T07:27:58;13.80;;;12.50;;
20417;SDS011;10368;51.436;6.774;2022-09-28T07:30:26;13.13;;;11.03;;
20417;SDS011;10368;51.436;6.774;2022-09-28T07:32:59;13.83;;;11.60;;
20417;SDS011;10368;51.436;6.774;2022-09-28T07:35:26;13.47;;;12.07;;
20417;SDS011;10368;51.436;6.774;2022-09-28T07:37:58;15.57;;;12.17;;
20417;SDS011;10368;51.436;6.774;2022-09-28T07:40:25;16.03;;;11.63;;
20417;SDS011;10368;51.436;6.774;2022-09-28T07:43:14;13.63;;;12.03;;
20417;SDS011;10368;51.436;6.774;2022-09-28T07:45:49;12.20;;;11.10;;
20417;SDS011;10368;51.436;6.774;2022-09-28T07:48:21;15.00;;;12.60;;
20417;SDS011;10368;51.436;6.774;2022-09-28T07:50:49;12.17;;;10.97;;
20417;SDS011;10368;51.436;6.774;2022-09-28T07:53:17;13.03;;;11.67;;
20417;SDS011;10368;51.436;6.774;2022-09-28T07:55:52;15.70;;;12.53;;
20417;SDS011;10368;51.436;6.774;2022-09-28T07:58:19;13.87;;;12.23;;
20417;SDS011;10368;51.436;6.774;2022-09-28T08:00:47;12.50;;;11.30;;
20417;SDS011;10368;51.436;6.774;2022-09-28T08:03:15;12.87;;;11.63;;
20417;SDS011;10368;51.436;6.774;2022-09-28T08:05:43;12.97;;;11.67;;
20417;SDS011;10368;51.436;6.774;2022-09-28T08:08:12;13.50;;;12.10;;
20417;SDS011;10368;51.436;6.774;2022-09-28T08:10:45;13.53;;;12.23;;
20417;SDS011;10368;51.436;6.774;2022-09-28T08:13:13;12.47;;;11.37;;
20417;SDS011;10368;51.436;6.774;2022-09-28T08:15:41;12.67;;;11.37;;
20417;SDS011;10368;51.436;6.774;2022-09-28T08:18:08;12.33;;;11.13;;
20417;SDS011;10368;51.436;6.774;2022-09-28T08:20:35;10.87;;;9.83;;
20417;SDS011;10368;51.436;6.774;2022-09-28T08:23:21;12.77;;;11.57;;
20417;SDS011;10368;51.436;6.774;2022-09-28T08:25:49;11.93;;;10.67;;
20417;SDS011;10368;51.436;6.774;2022-09-28T08:28:19;11.13;;;10.03;;
20417;SDS011;10368;51.436;6.774;2022-09-28T08:30:47;12.97;;;10.43;;
20417;SDS011;10368;51.436;6.774;2022-09-28T08:33:16;11.63;;;10.43;;
20417;SDS011;10368;51.436;6.774;2022-09-28T08:35:43;12.33;;;11.13;;
20417;SDS011;10368;51.436;6.774;2022-09-28T08:38:12;11.00;;;9.63;;
20417;SDS011;10368;51.436;6.774;2022-09-28T08:46:11;14.60;;;11.80;;
20417;SDS011;10368;51.436;6.774;2022-09-28T08:48:47;10.93;;;9.73;;
20417;SDS011;10368;51.436;6.774;2022-09-28T08:51:50;11.83;;;10.63;;
20417;SDS011;10368;51.436;6.774;2022-09-28T08:56:48;9.93;;;9.13;;
20417;SDS011;10368;51.436;6.774;2022-09-28T08:59:18;10.17;;;9.27;;
20417;SDS011;10368;51.436;6.774;2022-09-28T09:01:47;10.47;;;9.07;;
20417;SDS011;10368;51.436;6.774;2022-09-28T09:04:17;13.30;;;10.00;;
20417;SDS011;10368;51.436;6.774;2022-09-28T09:09:34;11.43;;;9.70;;
20417;SDS011;10368;51.436;6.774;2022-09-28T09:19:47;11.87;;;10.03;;
20417;SDS011;10368;51.436;6.774;2022-09-28T09:22:38;11.20;;;10.00;;
20417;SDS011;10368;51.436;6.774;2022-09-28T09:25:08;9.80;;;8.90;;
20417;SDS011;10368;51.436;6.774;2022-09-28T09:30:20;10.67;;;9.53;;
20417;SDS011;10368;51.436;6.774;2022-09-28T09:35:28;10.83;;;9.40;;
20417;SDS011;10368;51.436;6.774;2022-09-28T09:38:06;12.70;;;9.93;;
20417;SDS011;10368;51.436;6.774;2022-09-28T09:43:31;11.33;;;10.37;;
20417;SDS011;10368;51.436;6.774;2022-09-28T09:53:56;9.67;;;8.80;;
20417;SDS011;10368;51.436;6.774;2022-09-28T09:59:32;8.33;;;7.53;;
20417;SDS011;10368;51.436;6.774;2022-09-28T10:02:34;8.73;;;7.83;;
20417;SDS011;10368;51.436;6.774;2022-09-28T10:05:05;11.07;;;8.00;;
20417;SDS011;10368;51.436;6.774;2022-09-28T10:10:27;12.70;;;11.47;;
20417;SDS011;10368;51.436;6.774;2022-09-28T10:12:54;6.00;;;5.30;;
20417;SDS011;10368;51.436;6.774;2022-09-28T10:15:26;7.90;;;5.97;;
20417;SDS011;10368;51.436;6.774;2022-09-28T10:17:54;6.60;;;6.00;;
20417;SDS011;10368;51.436;6.774;2022-09-28T10:20:22;6.90;;;6.20;;
20417;SDS011;10368;51.436;6.774;2022-09-28T10:22:52;6.67;;;6.00;;
20417;SDS011;10368;51.436;6.774;2022-09-28T10:25:19;7.37;;;6.63;;
20417;SDS011;10368;51.436;6.774;2022-09-28T10:27:47;8.93;;;6.33;;
20417;SDS011;10368;51.436;6.774;2022-09-28T10:30:19;6.03;;;5.43;;
20417;SDS011;10368;51.436;6.774;2022-09-28T10:32:49;6.03;;;5.43;;
20417;SDS011;10368;51.436;6.774;2022-09-28T10:38:04;7.13;;;6.35;;
20417;SDS011;10368;51.436;6.774;2022-09-28T10:40:37;7.90;;;6.85;;
20417;SDS011;10368;51.436;6.774;2022-09-28T10:43:15;5.40;;;5.00;;
20417;SDS011;10368;51.436;6.774;2022-09-28T10:45:45;6.20;;;5.70;;
20417;SDS011;10368;51.436;6.774;2022-09-28T10:48:17;8.27;;;5.45;;
20417;SDS011;10368;51.436;6.774;2022-09-28T10:54:00;10.73;;;6.40;;
20417;SDS011;10368;51.436;6.774;2022-09-28T10:56:28;6.30;;;5.63;;
20417;SDS011;10368;51.436;6.774;2022-09-28T11:01:52;6.70;;;6.00;;
20417;SDS011;10368;51.436;6.774;2022-09-28T11:04:23;13.03;;;9.47;;
20417;SDS011;10368;51.436;6.774;2022-09-28T11:06:53;7.13;;;6.33;;
20417;SDS011;10368;51.436;6.774;2022-09-28T11:09:26;8.10;;;6.40;;
20417;SDS011;10368;51.436;6.774;2022-09-28T11:11:56;6.30;;;5.73;;
20417;SDS011;10368;51.436;6.774;2022-09-28T11:14:39;6.87;;;4.97;;
20417;SDS011;10368;51.436;6.774;2022-09-28T11:17:28;6.07;;;5.47;;
20417;SDS011;10368;51.436;6.774;2022-09-28T11:19:57;4.40;;;4.03;;
20417;SDS011;10368;51.436;6.774;2022-09-28T11:22:36;6.85;;;4.13;;
20417;SDS011;10368;51.436;6.774;2022-09-28T11:27:54;5.80;;;5.07;;
20417;SDS011;10368;51.436;6.774;2022-09-28T11:32:48;6.13;;;4.30;;
20417;SDS011;10368;51.436;6.774;2022-09-28T11:35:17;4.55;;;4.13;;
20417;SDS011;10368;51.436;6.774;2022-09-28T11:37:49;5.28;;;3.70;;
20417;SDS011;10368;51.436;6.774;2022-09-28T11:46:08;4.75;;;4.00;;
20417;SDS011;10368;51.436;6.774;2022-09-28T11:48:41;6.53;;;4.43;;
20417;SDS011;10368;51.436;6.774;2022-09-28T11:51:14;5.45;;;4.60;;
20417;SDS011;10368;51.436;6.774;2022-09-28T11:53:52;5.53;;;4.20;;
20417;SDS011;10368;51.436;6.774;2022-09-28T11:58:59;6.13;;;4.68;;
20417;SDS011;10368;51.436;6.774;2022-09-28T12:01:37;9.18;;;4.90;;
20417;SDS011;10368;51.436;6.774;2022-09-28T12:05:07;4.30;;;4.00;;
20417;SDS011;10368;51.436;6.774;2022-09-28T12:07:17;5.57;;;4.80;;
20417;SDS011;10368;51.436;6.774;2022-09-28T12:14:51;3.72;;;3.38;;
20417;SDS011;10368;51.436;6.774;2022-09-28T12:17:27;4.07;;;3.25;;
20417;SDS011;10368;51.436;6.774;2022-09-28T12:20:00;4.07;;;3.70;;
20417;SDS011;10368;51.436;6.774;2022-09-28T12:22:34;5.95;;;4.47;;
20417;SDS011;10368;51.436;6.774;2022-09-28T12:25:02;5.78;;;3.70;;
20417;SDS011;10368;51.436;6.774;2022-09-28T12:30:11;3.33;;;3.03;;
20417;SDS011;10368;51.436;6.774;2022-09-28T12:32:45;3.60;;;3.30;;
20417;SDS011;10368;51.436;6.774;2022-09-28T12:57:48;3.17;;;2.97;;
20417;SDS011;10368;51.436;6.774;2022-09-28T12:59:46;5.93;;;5.28;;
20417;SDS011;10368;51.436;6.774;2022-09-28T13:23:04;3.67;;;3.13;;
20417;SDS011;10368;51.436;6.774;2022-09-28T13:25:35;4.68;;;3.75;;
20417;SDS011;10368;51.436;6.774;2022-09-28T13:28:06;8.07;;;3.65;;
20417;SDS011;10368;51.436;6.774;2022-09-28T13:30:33;4.82;;;3.85;;
20417;SDS011;10368;51.436;6.774;2022-09-28T13:33:04;7.67;;;4.47;;
20417;SDS011;10368;51.436;6.774;2022-09-28T13:35:33;5.90;;;4.27;;
20417;SDS011;10368;51.436;6.774;2022-09-28T13:44:15;2.10;;;1.90;;
20417;SDS011;10368;51.436;6.774;2022-09-28T13:46:26;2.53;;;2.20;;
20417;SDS011;10368;51.436;6.774;2022-09-28T13:52:06;2.53;;;2.22;;
20417;SDS011;10368;51.436;6.774;2022-09-28T13:54:40;4.47;;;2.70;;
20417;SDS011;10368;51.436;6.774;2022-09-28T13:57:26;2.15;;;2.05;;
20417;SDS011;10368;51.436;6.774;2022-09-28T14:02:28;3.95;;;3.25;;
20417;SDS011;10368;51.436;6.774;2022-09-28T14:05:01;3.05;;;2.60;;
20417;SDS011;10368;51.436;6.774;2022-09-28T14:10:19;14.05;;;11.88;;
20417;SDS011;10368;51.436;6.774;2022-09-28T14:12:51;2.38;;;2.17;;
20417;SDS011;10368;51.436;6.774;2022-09-28T14:20:24;3.05;;;2.75;;
20417;SDS011;10368;51.436;6.774;2022-09-28T14:25:24;3.78;;;3.45;;
20417;SDS011;10368;51.436;6.774;2022-09-28T14:35:57;7.23;;;3.60;;
20417;SDS011;10368;51.436;6.774;2022-09-28T14:48:43;1.50;;;1.40;;
20417;SDS011;10368;51.436;6.774;2022-09-28T14:53:53;1.57;;;1.30;;
20417;SDS011;10368;51.436;6.774;2022-09-28T14:56:21;2.13;;;0.93;;
20417;SDS011;10368;51.436;6.774;2022-09-28T14:58:52;2.80;;;0.70;;
20417;SDS011;10368;51.436;6.774;2022-09-28T15:01:21;2.37;;;1.00;;
20417;SDS011;10368;51.436;6.774;2022-09-28T15:03:50;2.83;;;0.90;;
20417;SDS011;10368;51.436;6.774;2022-09-28T15:06:22;1.20;;;1.10;;
20417;SDS011;10368;51.436;6.774;2022-09-28T15:08:50;3.13;;;1.30;;
20417;SDS011;10368;51.436;6.774;2022-09-28T15:11:21;1.37;;;1.10;;
20417;SDS011;10368;51.436;6.774;2022-09-28T15:13:49;1.10;;;1.00;;
20417;SDS011;10368;51.436;6.774;2022-09-28T15:16:21;1.70;;;1.17;;
20417;SDS011;10368;51.436;6.774;2022-09-28T15:21:19;5.53;;;3.73;;
20417;SDS011;10368;51.436;6.774;2022-09-28T15:23:47;11.60;;;6.23;;
20417;SDS011;10368;51.436;6.774;2022-09-28T15:26:23;9.40;;;6.27;;
20417;SDS011;10368;51.436;6.774;2022-09-28T15:28:52;14.07;;;6.23;;
20417;SDS011;10368;51.436;6.774;2022-09-28T15:31:21;6.53;;;4.70;;
20417;SDS011;10368;51.436;6.774;2022-09-28T15:33:49;10.40;;;4.43;;
20417;SDS011;10368;51.436;6.774;2022-09-28T15:36:36;7.87;;;4.57;;
20417;SDS011;10368;51.436;6.774;2022-09-28T15:39:28;8.23;;;5.00;;
20417;SDS011;10368;51.436;6.774;2022-09-28T15:41:53;9.10;;;6.43;;
20417;SDS011;10368;51.436;6.774;2022-09-28T15:44:25;9.77;;;6.30;;
20417;SDS011;10368;51.436;6.774;2022-09-28T15:47:11;9.60;;;4.73;;
20417;SDS011;10368;51.436;6.774;2022-09-28T15:54:49;8.97;;;4.83;;
20417;SDS011;10368;51.436;6.774;2022-09-28T16:00:00;5.03;;;4.00;;
20417;SDS011;10368;51.436;6.774;2022-09-28T16:02:27;3.27;;;2.97;;
20417;SDS011;10368;51.436;6.774;2022-09-28T16:04:56;3.47;;;2.57;;
20417;SDS011;10368;51.436;6.774;2022-09-28T16:10:30;1.73;;;1.63;;
20417;SDS011;10368;51.436;6.774;2022-09-28T16:13:06;1.80;;;1.00;;
20417;SDS011;10368;51.436;6.774;2022-09-28T16:15:34;1.67;;;1.30;;
20417;SDS011;10368;51.436;6.774;2022-09-28T16:18:04;3.20;;;1.50;;
20417;SDS011;10368;51.436;6.774;2022-09-28T16:20:33;2.53;;;1.63;;
20417;SDS011;10368;51.436;6.774;2022-09-28T16:23:18;2.93;;;1.43;;
20417;SDS011;10368;51.436;6.774;2022-09-28T16:33:38;4.30;;;1.80;;
20417;SDS011;10368;51.436;6.774;2022-09-28T16:36:09;4.87;;;2.00;;
20417;SDS011;10368;51.436;6.774;2022-09-28T16:38:37;4.47;;;2.70;;
20417;SDS011;10368;51.436;6.774;2022-09-28T16:41:05;3.83;;;2.43;;
20417;SDS011;10368;51.436;6.774;2022-09-28T16:43:32;2.13;;;1.87;;
20417;SDS011;10368;51.436;6.774;2022-09-28T16:46:08;2.70;;;1.87;;
20417;SDS011;10368;51.436;6.774;2022-09-28T16:48:41;2.20;;;2.00;;
20417;SDS011;10368;51.436;6.774;2022-09-28T16:51:17;3.30;;;2.57;;
20417;SDS011;10368;51.436;6.774;2022-09-28T16:53:44;4.53;;;2.07;;
20417;SDS011;10368;51.436;6.774;2022-09-28T16:56:31;2.77;;;2.30;;
20417;SDS011;10368;51.436;6.774;2022-09-28T16:58:59;2.40;;;1.93;;
20417;SDS011;10368;51.436;6.774;2022-09-28T17:01:29;3.07;;;2.67;;
20417;SDS011;10368;51.436;6.774;2022-09-28T17:03:57;2.77;;;2.37;;
20417;SDS011;10368;51.436;6.774;2022-09-28T17:06:24;3.70;;;2.10;;
20417;SDS011;10368;51.436;6.774;2022-09-28T17:08:52;2.67;;;1.93;;
20417;SDS011;10368;51.436;6.774;2022-09-28T17:11:24;3.30;;;1.93;;
20417;SDS011;10368;51.436;6.774;2022-09-28T17:13:51;2.70;;;2.40;;
20417;SDS011;10368;51.436;6.774;2022-09-28T17:16:25;2.50;;;2.30;;
20417;SDS011;10368;51.436;6.774;2022-09-28T17:19:20;4.17;;;1.80;;
20417;SDS011;10368;51.436;6.774;2022-09-28T17:21:49;3.13;;;2.10;;
20417;SDS011;10368;51.436;6.774;2022-09-28T17:24:17;2.00;;;1.80;;
20417;SDS011;10368;51.436;6.774;2022-09-28T17:26:45;2.93;;;2.13;;
20417;SDS011;10368;51.436;6.774;2022-09-28T17:29:13;2.20;;;2.00;;
20417;SDS011;10368;51.436;6.774;2022-09-28T17:31:41;6.57;;;2.90;;
20417;SDS011;10368;51.436;6.774;2022-09-28T17:34:09;7.00;;;4.40;;
20417;SDS011;10368;51.436;6.774;2022-09-28T17:36:37;5.57;;;3.97;;
20417;SDS011;10368;51.436;6.774;2022-09-28T17:39:05;3.00;;;2.70;;
20417;SDS011;10368;51.436;6.774;2022-09-28T17:41:32;3.60;;;3.30;;
20417;SDS011;10368;51.436;6.774;2022-09-28T17:43:59;4.23;;;3.10;;
20417;SDS011;10368;51.436;6.774;2022-09-28T17:46:31;3.50;;;3.20;;
20417;SDS011;10368;51.436;6.774;2022-09-28T17:49:00;3.07;;;2.77;;
20417;SDS011;10368;51.436;6.774;2022-09-28T17:51:28;5.70;;;3.43;;
20417;SDS011;10368;51.436;6.774;2022-09-28T17:53:56;5.83;;;3.30;;
20417;SDS011;10368;51.436;6.774;2022-09-28T17:56:23;6.13;;;4.13;;
20417;SDS011;10368;51.436;6.774;2022-09-28T17:59:01;5.83;;;4.10;;
20417;SDS011;10368;51.436;6.774;2022-09-28T18:01:29;3.77;;;3.47;;
20417;SDS011;10368;51.436;6.774;2022-09-28T18:04:00;4.47;;;3.90;;
20417;SDS011;10368;51.436;6.774;2022-09-28T18:06:27;6.63;;;4.83;;
20417;SDS011;10368;51.436;6.774;2022-09-28T18:08:55;7.17;;;4.77;;
20417;SDS011;10368;51.436;6.774;2022-09-28T18:11:22;9.40;;;5.67;;
20417;SDS011;10368;51.436;6.774;2022-09-28T18:13:49;7.33;;;5.27;;
20417;SDS011;10368;51.436;6.774;2022-09-28T18:16:16;5.70;;;4.17;;
20417;SDS011;10368;51.436;6.774;2022-09-28T18:18:44;7.30;;;4.43;;
20417;SDS011;10368;51.436;6.774;2022-09-28T18:21:12;7.87;;;4.90;;
20417;SDS011;10368;51.436;6.774;2022-09-28T18:23:40;9.33;;;5.40;;
20417;SDS011;10368;51.436;6.774;2022-09-28T18:26:10;12.87;;;8.23;;
20417;SDS011;10368;51.436;6.774;2022-09-28T18:28:38;9.90;;;5.10;;
20417;SDS011;10368;51.436;6.774;2022-09-28T18:31:07;8.67;;;4.53;;
20417;SDS011;10368;51.436;6.774;2022-09-28T18:33:34;6.80;;;5.00;;